Schedule Details

Flight Number: CPX215
Departure: Don Miguel Hidalgo y Costilla International Airport (MMGL) at 0900 UTC
Arrival: Benito Juárez International Airport (MMMX) at 1000 UTC
Route: GDL4A GDL UJ14 QET UJ5 TIKEB TIKEB1A


Current Weather Information
MMGL 180550Z 34005KT 10SM SKC 17/06 A3016 RMK SLP098 52011 918
MMMX 180546Z 18004KT 10SM SKC 19/04 A3031 NOSIG RMK SLP062 52014 918

Route Map